Irish Sea — WDB5555 — position and weather

sailwx.info

Track history (hours):
 
Tides and Currents Weather Stations Pressure Air Temp Water Temp Dewpoint Dewpoint Depression Visibility Wind Speed Wind Dir Waves Ship Positions

Irish Sea

Owner: Kirby Offshore Marine, LLC, Staten Island, NY. More information available from US FCC via Universal Licensing System and Coast Guard Vessel Documentation Center.

Last reported at 2016-Jul-02 08:33 UTC. Time now 2016-Jul-02 09:34 UTC.
Position N 39°51' W 075°14'.

Length 157 m; draft 6.9 m.

Type: . MMSI: 366910920.

Date/timePositionNaut miles runAvg speedWind from/ knotsBaromVisibWave heightAir tempDewpointWater temp
2016-Jul-02 08:33N 39°51' W 075°14'0 0.0
2016-Jul-02 07:33N 39°51' W 075°14'0 0.0
2016-Jul-02 06:33N 39°51' W 075°14'0 0.1
2016-Jul-02 04:33N 39°52' W 075°14'0 0.0
2016-Jul-02 03:33N 39°52' W 075°14'0 0.0
2016-Jul-02 02:33N 39°52' W 075°14'0 0.0
2016-Jul-02 01:33N 39°52' W 075°14'0 0.0
2016-Jul-02 00:33N 39°52' W 075°14'0 0.0
2016-Jul-01 23:33N 39°52' W 075°14'0 0.1
2016-Jul-01 22:33N 39°52' W 075°14'0 0.1
2016-Jul-01 21:33N 39°52' W 075°14'0 0.0
2016-Jul-01 20:33N 39°52' W 075°14'0 0.1
2016-Jul-01 19:33N 39°51' W 075°14'0 0.0
2016-Jul-01 18:30N 39°51' W 075°14'0 0.1
2016-Jul-01 17:33N 39°52' W 075°14'0 0.1
2016-Jul-01 16:33N 39°52' W 075°14'0 0.1
2016-Jul-01 15:33N 39°52' W 075°14'0 0.0
2016-Jul-01 14:33N 39°52' W 075°14'0 0.0
2016-Jul-01 13:33N 39°52' W 075°14'0 0.0
2016-Jul-01 12:33N 39°52' W 075°14'0 0.0
2016-Jul-01 11:33N 39°52' W 075°14'0 0.2
2016-Jul-01 10:33N 39°52' W 075°14'0 0.0
2016-Jul-01 09:33N 39°51' W 075°14'0 0.0
2016-Jul-01 08:33N 39°51' W 075°14'0 0.0
2016-Jul-01 07:33N 39°51' W 075°14'0 0.0
2016-Jul-01 06:33N 39°51' W 075°14'0 0.0
2016-Jul-01 05:33N 39°51' W 075°14'0 0.1
2016-Jul-01 04:32N 39°52' W 075°14'0 0.1
2016-Jul-01 03:32N 39°52' W 075°14'0 0.0
2016-Jul-01 02:32N 39°52' W 075°14'0 0.0
2016-Jul-01 01:32N 39°52' W 075°14'0 0.0
2016-Jul-01 00:32N 39°52' W 075°14'0 0.0
2016-Jun-30 23:32N 39°52' W 075°14'0 0.0
2016-Jun-30 22:29N 39°52' W 075°14'0 0.2
2016-Jun-30 21:33N 39°52' W 075°14'0 0.1
2016-Jun-30 20:33N 39°51' W 075°14'0 0.0
2016-Jun-30 19:33N 39°51' W 075°14'0 0.0
2016-Jun-30 18:34N 39°51' W 075°14'0 0.0
2016-Jun-30 17:33N 39°51' W 075°14'0 0.0
2016-Jun-30 16:33N 39°51' W 075°14'3 2.8
2016-Jun-30 15:33N 39°53' W 075°11'0 0.0
2016-Jun-30 14:33N 39°53' W 075°11'0 0.0
2016-Jun-30 13:32N 39°53' W 075°11'3 2.6
2016-Jun-30 12:33N 39°52' W 075°14'0 0.0
2016-Jun-30 11:33N 39°52' W 075°14'0 0.0
2016-Jun-30 10:33N 39°52' W 075°14'0 0.2
2016-Jun-30 09:33N 39°51' W 075°14'0 0.1
2016-Jun-30 08:33N 39°51' W 075°14'0 0.0
2016-Jun-30 07:33N 39°51' W 075°14'0 0.0
2016-Jun-30 06:33N 39°51' W 075°14'0 0.0
2016-Jun-30 05:33N 39°51' W 075°14'0 0.0
2016-Jun-30 04:33N 39°51' W 075°14'0 0.1
2016-Jun-30 03:33N 39°51' W 075°14'0 0.1
2016-Jun-30 02:33N 39°51' W 075°14'0 0.0
2016-Jun-30 01:33N 39°52' W 075°14'0 0.0
2016-Jun-30 00:33N 39°52' W 075°14'0 0.0
2016-Jun-29 23:30N 39°52' W 075°14'0 0.0
2016-Jun-29 22:33N 39°52' W 075°14'0 0.0
2016-Jun-29 21:33N 39°52' W 075°14'0 0.1
2016-Jun-29 20:33N 39°51' W 075°14'0 0.1
2016-Jun-29 19:33N 39°51' W 075°14'0 0.0
2016-Jun-29 18:33N 39°51' W 075°14'4 3.6
2016-Jun-29 17:33N 39°51' W 075°18'7 7.3
2016-Jun-29 16:33N 39°47' W 075°27'7 7.3
2016-Jun-29 15:33N 39°41' W 075°31'7 6.6
2016-Jun-29 14:33N 39°35' W 075°33'2 1.8
2016-Jun-29 13:33N 39°35' W 075°36'0 0.0
2016-Jun-29 12:31N 39°35' W 075°36'0 0.0
2016-Jun-29 11:31N 39°35' W 075°36'0 0.0
2016-Jun-29 10:32N 39°35' W 075°36'0 0.0
2016-Jun-29 09:31N 39°35' W 075°36'0 0.0
2016-Jun-29 08:31N 39°35' W 075°36'0 0.0
2016-Jun-29 07:31N 39°35' W 075°36'0 0.0
2016-Jun-29 06:19N 39°35' W 075°36'0 0.0
2016-Jun-29 05:28N 39°35' W 075°36'0 0.0
2016-Jun-29 04:31N 39°35' W 075°36'0 0.0
2016-Jun-29 03:32N 39°35' W 075°36'0 0.0
2016-Jun-29 02:31N 39°35' W 075°36'0 0.0
2016-Jun-29 01:32N 39°35' W 075°36'0 0.0
2016-Jun-29 00:31N 39°35' W 075°36'0 0.0
2016-Jun-28 23:31N 39°35' W 075°36'0 0.0
2016-Jun-28 22:31N 39°35' W 075°36'0 0.0
2016-Jun-28 21:31N 39°35' W 075°36'0 0.0
2016-Jun-28 20:33N 39°35' W 075°36'3 2.9
2016-Jun-28 19:33N 39°33' W 075°33'8 7.7
2016-Jun-28 18:33N 39°26' W 075°32'7 7.2
2016-Jun-28 17:33N 39°20' W 075°25'8 7.5
2016-Jun-28 16:32N 39°15' W 075°19'67 5.4
2016-Jun-28 04:06N 39°43' W 074°00'5 8.3
2016-Jun-28 03:32N 39°48' W 073°59'49 8.1
2016-Jun-27 21:31N 40°37' W 074°03'7 0.5
2016-Jun-27 05:33N 40°35' W 074°13'1 0.5
2016-Jun-27 03:32N 40°36' W 074°12'3 3.6
2016-Jun-27 02:34N 40°39' W 074°09'1 1.3
2016-Jun-27 01:33N 40°39' W 074°07'0 0.0
2016-Jun-27 00:25N 40°39' W 074°07'0 0.0
2016-Jun-26 21:05N 40°39' W 074°07'0 0.0
2016-Jun-26 20:22N 40°39' W 074°07'0 0.0
2016-Jun-26 19:31N 40°39' W 074°07'0 0.1
2016-Jun-26 17:26N 40°39' W 074°07'0 0.1
2016-Jun-26 14:23N 40°39' W 074°07'0 0.0
2016-Jun-26 13:33N 40°39' W 074°07'0 0.0
2016-Jun-26 12:33N 40°39' W 074°07'0 0.0
2016-Jun-26 11:33N 40°39' W 074°07'0 0.0
2016-Jun-26 10:33N 40°39' W 074°07'0 0.4
2016-Jun-26 09:32N 40°39' W 074°07'0 0.0
2016-Jun-26 08:05N 40°39' W 074°07'0 0.0
2016-Jun-26 07:23N 40°39' W 074°07'0 0.0
2016-Jun-26 06:29N 40°39' W 074°07'0 0.0
2016-Jun-26 05:34N 40°39' W 074°07'0 0.0
2016-Jun-26 04:29N 40°39' W 074°07'2 2.7
2016-Jun-26 03:33N 40°39' W 074°04'1 0.8
2016-Jun-26 02:33N 40°39' W 074°03'0 0.1
2016-Jun-26 01:33N 40°39' W 074°03'0 0.1
2016-Jun-26 00:33N 40°39' W 074°03'0 0.0
2016-Jun-25 23:33N 40°39' W 074°03'0 0.0
2016-Jun-25 22:30N 40°39' W 074°03'0 0.0
2016-Jun-25 21:30N 40°39' W 074°03'0 0.2
2016-Jun-25 20:33N 40°39' W 074°03'0 0.0
2016-Jun-25 19:33N 40°39' W 074°03'0 0.0
2016-Jun-25 18:30N 40°39' W 074°03'0 0.0
2016-Jun-25 17:33N 40°39' W 074°03'0 0.0
2016-Jun-25 16:33N 40°39' W 074°03'0 0.0
2016-Jun-25 15:33N 40°39' W 074°03'0 0.1
2016-Jun-25 14:33N 40°39' W 074°03'0 0.2
2016-Jun-25 13:33N 40°39' W 074°03'0 0.0
2016-Jun-25 12:30N 40°39' W 074°03'0 0.0
2016-Jun-25 11:33N 40°39' W 074°03'0 0.0
2016-Jun-25 10:33N 40°39' W 074°03'0 0.0
2016-Jun-25 09:33N 40°39' W 074°03'0 0.0
2016-Jun-25 08:33N 40°39' W 074°03'0 0.0
2016-Jun-25 07:33N 40°39' W 074°03'0 0.2
2016-Jun-25 06:32N 40°39' W 074°03'0 0.1
2016-Jun-25 05:29N 40°40' W 074°03'0 0.0
2016-Jun-25 04:32N 40°39' W 074°03'0 0.0
2016-Jun-25 03:26N 40°39' W 074°03'0 0.0
2016-Jun-25 02:32N 40°39' W 074°03'0 0.1
2016-Jun-25 01:29N 40°39' W 074°03'0 0.1
2016-Jun-25 00:32N 40°39' W 074°03'0 0.0
2016-Jun-24 23:33N 40°39' W 074°03'52 6.6
2016-Jun-24 15:33N 39°47' W 073°57'8 7.6
2016-Jun-24 14:33N 39°40' W 074°01'8 7.6
2016-Jun-24 13:33N 39°33' W 074°06'58 5.3
2016-Jun-24 02:33N 39°04' W 075°11'6 5.9
2016-Jun-24 01:33N 39°09' W 075°15'7 6.7
2016-Jun-24 00:33N 39°15' W 075°19'9 8.7
2016-Jun-23 23:33N 39°22' W 075°27'9 9.1
2016-Jun-23 22:34N 39°29' W 075°34'6 6.4
2016-Jun-23 21:33N 39°35' W 075°35'0 0.0
2016-Jun-23 20:28N 39°35' W 075°35'0 0.0
2016-Jun-23 19:31N 39°35' W 075°35'0 0.0
2016-Jun-23 18:31N 39°35' W 075°35'0 0.0
2016-Jun-23 17:31N 39°35' W 075°35'0 0.0
2016-Jun-23 16:31N 39°35' W 075°35'0 0.0
2016-Jun-23 15:31N 39°35' W 075°35'0 0.0
2016-Jun-23 14:31N 39°35' W 075°35'0 0.0
2016-Jun-23 13:31N 39°35' W 075°35'0 0.0
2016-Jun-23 12:31N 39°35' W 075°35'0 0.0
2016-Jun-23 11:31N 39°35' W 075°35'0 0.0
2016-Jun-23 10:31N 39°35' W 075°35'0 0.0
2016-Jun-23 09:32N 39°35' W 075°35'0 0.0
2016-Jun-23 08:31N 39°35' W 075°35'0 0.0
2016-Jun-23 07:32N 39°35' W 075°35'0 0.0
2016-Jun-23 05:33N 39°35' W 075°35'0 0.0
2016-Jun-23 04:33N 39°35' W 075°35'0 0.0
2016-Jun-23 03:33N 39°35' W 075°35'0 0.0
2016-Jun-23 02:33N 39°35' W 075°35'0 0.0
2016-Jun-23 01:33N 39°35' W 075°35'0 0.0
2016-Jun-23 00:33N 39°35' W 075°35'0 0.0
2016-Jun-22 23:33N 39°35' W 075°35'0 0.0
2016-Jun-22 22:33N 39°35' W 075°35'0 0.0
2016-Jun-22 21:33N 39°35' W 075°35'0 0.0
2016-Jun-22 20:33N 39°35' W 075°35'1 1.5
2016-Jun-22 19:33N 39°34' W 075°34'6 5.5
2016-Jun-22 18:33N 39°29' W 075°34'1 0.7
2016-Jun-22 17:33N 39°29' W 075°33'8 7.9
2016-Jun-22 16:33N 39°23' W 075°28'9 9.4
2016-Jun-22 15:33N 39°15' W 075°20'  
Track history (hours):
 
Tides and Currents Weather Stations Pressure Air Temp Water Temp Dewpoint Dewpoint Depression Visibility Wind Speed Wind Dir Waves Ship Positions

Irish Sea

Owner: Kirby Offshore Marine, LLC, Staten Island, NY. More information available from US FCC via Universal Licensing System and Coast Guard Vessel Documentation Center.

Last reported at 2016-Jul-02 08:33 UTC. Time now 2016-Jul-02 09:34 UTC.
Position N 39°51' W 075°14'.

Length 157 m; draft 6.9 m.

Type: . MMSI: 366910920.

Date/timePositionNaut miles runAvg speedWind from/ knotsBaromVisibWave heightAir tempDewpointWater temp
2016-Jul-02 08:33N 39°51' W 075°14'0 0.0
2016-Jul-02 07:33N 39°51' W 075°14'0 0.0
2016-Jul-02 06:33N 39°51' W 075°14'0 0.1
2016-Jul-02 04:33N 39°52' W 075°14'0 0.0
2016-Jul-02 03:33N 39°52' W 075°14'0 0.0
2016-Jul-02 02:33N 39°52' W 075°14'0 0.0
2016-Jul-02 01:33N 39°52' W 075°14'0 0.0
2016-Jul-02 00:33N 39°52' W 075°14'0 0.0
2016-Jul-01 23:33N 39°52' W 075°14'0 0.1
2016-Jul-01 22:33N 39°52' W 075°14'0 0.1
2016-Jul-01 21:33N 39°52' W 075°14'0 0.0
2016-Jul-01 20:33N 39°52' W 075°14'0 0.1
2016-Jul-01 19:33N 39°51' W 075°14'0 0.0
2016-Jul-01 18:30N 39°51' W 075°14'0 0.1
2016-Jul-01 17:33N 39°52' W 075°14'0 0.1
2016-Jul-01 16:33N 39°52' W 075°14'0 0.1
2016-Jul-01 15:33N 39°52' W 075°14'0 0.0
2016-Jul-01 14:33N 39°52' W 075°14'0 0.0
2016-Jul-01 13:33N 39°52' W 075°14'0 0.0
2016-Jul-01 12:33N 39°52' W 075°14'0 0.0
2016-Jul-01 11:33N 39°52' W 075°14'0 0.2
2016-Jul-01 10:33N 39°52' W 075°14'0 0.0
2016-Jul-01 09:33N 39°51' W 075°14'0 0.0
2016-Jul-01 08:33N 39°51' W 075°14'0 0.0
2016-Jul-01 07:33N 39°51' W 075°14'0 0.0
2016-Jul-01 06:33N 39°51' W 075°14'0 0.0
2016-Jul-01 05:33N 39°51' W 075°14'0 0.1
2016-Jul-01 04:32N 39°52' W 075°14'0 0.1
2016-Jul-01 03:32N 39°52' W 075°14'0 0.0
2016-Jul-01 02:32N 39°52' W 075°14'0 0.0
2016-Jul-01 01:32N 39°52' W 075°14'0 0.0
2016-Jul-01 00:32N 39°52' W 075°14'0 0.0
2016-Jun-30 23:32N 39°52' W 075°14'0 0.0
2016-Jun-30 22:29N 39°52' W 075°14'0 0.2
2016-Jun-30 21:33N 39°52' W 075°14'0 0.1
2016-Jun-30 20:33N 39°51' W 075°14'0 0.0
2016-Jun-30 19:33N 39°51' W 075°14'0 0.0
2016-Jun-30 18:34N 39°51' W 075°14'0 0.0
2016-Jun-30 17:33N 39°51' W 075°14'0 0.0
2016-Jun-30 16:33N 39°51' W 075°14'3 2.8
2016-Jun-30 15:33N 39°53' W 075°11'0 0.0
2016-Jun-30 14:33N 39°53' W 075°11'0 0.0
2016-Jun-30 13:32N 39°53' W 075°11'3 2.6
2016-Jun-30 12:33N 39°52' W 075°14'0 0.0
2016-Jun-30 11:33N 39°52' W 075°14'0 0.0
2016-Jun-30 10:33N 39°52' W 075°14'0 0.2
2016-Jun-30 09:33N 39°51' W 075°14'0 0.1
2016-Jun-30 08:33N 39°51' W 075°14'0 0.0
2016-Jun-30 07:33N 39°51' W 075°14'0 0.0
2016-Jun-30 06:33N 39°51' W 075°14'0 0.0
2016-Jun-30 05:33N 39°51' W 075°14'0 0.0
2016-Jun-30 04:33N 39°51' W 075°14'0 0.1
2016-Jun-30 03:33N 39°51' W 075°14'0 0.1
2016-Jun-30 02:33N 39°51' W 075°14'0 0.0
2016-Jun-30 01:33N 39°52' W 075°14'0 0.0
2016-Jun-30 00:33N 39°52' W 075°14'0 0.0
2016-Jun-29 23:30N 39°52' W 075°14'0 0.0
2016-Jun-29 22:33N 39°52' W 075°14'0 0.0
2016-Jun-29 21:33N 39°52' W 075°14'0 0.1
2016-Jun-29 20:33N 39°51' W 075°14'0 0.1
2016-Jun-29 19:33N 39°51' W 075°14'0 0.0
2016-Jun-29 18:33N 39°51' W 075°14'4 3.6
2016-Jun-29 17:33N 39°51' W 075°18'7 7.3
2016-Jun-29 16:33N 39°47' W 075°27'7 7.3
2016-Jun-29 15:33N 39°41' W 075°31'7 6.6
2016-Jun-29 14:33N 39°35' W 075°33'2 1.8
2016-Jun-29 13:33N 39°35' W 075°36'0 0.0
2016-Jun-29 12:31N 39°35' W 075°36'0 0.0
2016-Jun-29 11:31N 39°35' W 075°36'0 0.0
2016-Jun-29 10:32N 39°35' W 075°36'0 0.0
2016-Jun-29 09:31N 39°35' W 075°36'0 0.0
2016-Jun-29 08:31N 39°35' W 075°36'0 0.0
2016-Jun-29 07:31N 39°35' W 075°36'0 0.0
2016-Jun-29 06:19N 39°35' W 075°36'0 0.0
2016-Jun-29 05:28N 39°35' W 075°36'0 0.0
2016-Jun-29 04:31N 39°35' W 075°36'0 0.0
2016-Jun-29 03:32N 39°35' W 075°36'0 0.0
2016-Jun-29 02:31N 39°35' W 075°36'0 0.0
2016-Jun-29 01:32N 39°35' W 075°36'0 0.0
2016-Jun-29 00:31N 39°35' W 075°36'0 0.0
2016-Jun-28 23:31N 39°35' W 075°36'0 0.0
2016-Jun-28 22:31N 39°35' W 075°36'0 0.0
2016-Jun-28 21:31N 39°35' W 075°36'0 0.0
2016-Jun-28 20:33N 39°35' W 075°36'3 2.9
2016-Jun-28 19:33N 39°33' W 075°33'8 7.7
2016-Jun-28 18:33N 39°26' W 075°32'7 7.2
2016-Jun-28 17:33N 39°20' W 075°25'8 7.5
2016-Jun-28 16:32N 39°15' W 075°19'67 5.4
2016-Jun-28 04:06N 39°43' W 074°00'5 8.3
2016-Jun-28 03:32N 39°48' W 073°59'49 8.1
2016-Jun-27 21:31N 40°37' W 074°03'7 0.5
2016-Jun-27 05:33N 40°35' W 074°13'1 0.5
2016-Jun-27 03:32N 40°36' W 074°12'3 3.6
2016-Jun-27 02:34N 40°39' W 074°09'1 1.3
2016-Jun-27 01:33N 40°39' W 074°07'0 0.0
2016-Jun-27 00:25N 40°39' W 074°07'0 0.0
2016-Jun-26 21:05N 40°39' W 074°07'0 0.0
2016-Jun-26 20:22N 40°39' W 074°07'0 0.0
2016-Jun-26 19:31N 40°39' W 074°07'0 0.1
2016-Jun-26 17:26N 40°39' W 074°07'0 0.1
2016-Jun-26 14:23N 40°39' W 074°07'0 0.0
2016-Jun-26 13:33N 40°39' W 074°07'0 0.0
2016-Jun-26 12:33N 40°39' W 074°07'0 0.0
2016-Jun-26 11:33N 40°39' W 074°07'0 0.0
2016-Jun-26 10:33N 40°39' W 074°07'0 0.4
2016-Jun-26 09:32N 40°39' W 074°07'0 0.0
2016-Jun-26 08:05N 40°39' W 074°07'0 0.0
2016-Jun-26 07:23N 40°39' W 074°07'0 0.0
2016-Jun-26 06:29N 40°39' W 074°07'0 0.0
2016-Jun-26 05:34N 40°39' W 074°07'0 0.0
2016-Jun-26 04:29N 40°39' W 074°07'2 2.7
2016-Jun-26 03:33N 40°39' W 074°04'1 0.8
2016-Jun-26 02:33N 40°39' W 074°03'0 0.1
2016-Jun-26 01:33N 40°39' W 074°03'0 0.1
2016-Jun-26 00:33N 40°39' W 074°03'0 0.0
2016-Jun-25 23:33N 40°39' W 074°03'0 0.0
2016-Jun-25 22:30N 40°39' W 074°03'0 0.0
2016-Jun-25 21:30N 40°39' W 074°03'0 0.2
2016-Jun-25 20:33N 40°39' W 074°03'0 0.0
2016-Jun-25 19:33N 40°39' W 074°03'0 0.0
2016-Jun-25 18:30N 40°39' W 074°03'0 0.0
2016-Jun-25 17:33N 40°39' W 074°03'0 0.0
2016-Jun-25 16:33N 40°39' W 074°03'0 0.0
2016-Jun-25 15:33N 40°39' W 074°03'0 0.1
2016-Jun-25 14:33N 40°39' W 074°03'0 0.2
2016-Jun-25 13:33N 40°39' W 074°03'0 0.0
2016-Jun-25 12:30N 40°39' W 074°03'0 0.0
2016-Jun-25 11:33N 40°39' W 074°03'0 0.0
2016-Jun-25 10:33N 40°39' W 074°03'0 0.0
2016-Jun-25 09:33N 40°39' W 074°03'0 0.0
2016-Jun-25 08:33N 40°39' W 074°03'0 0.0
2016-Jun-25 07:33N 40°39' W 074°03'0 0.2
2016-Jun-25 06:32N 40°39' W 074°03'0 0.1
2016-Jun-25 05:29N 40°40' W 074°03'0 0.0
2016-Jun-25 04:32N 40°39' W 074°03'0 0.0
2016-Jun-25 03:26N 40°39' W 074°03'0 0.0
2016-Jun-25 02:32N 40°39' W 074°03'0 0.1
2016-Jun-25 01:29N 40°39' W 074°03'0 0.1
2016-Jun-25 00:32N 40°39' W 074°03'0 0.0
2016-Jun-24 23:33N 40°39' W 074°03'52 6.6
2016-Jun-24 15:33N 39°47' W 073°57'8 7.6
2016-Jun-24 14:33N 39°40' W 074°01'8 7.6
2016-Jun-24 13:33N 39°33' W 074°06'58 5.3
2016-Jun-24 02:33N 39°04' W 075°11'6 5.9
2016-Jun-24 01:33N 39°09' W 075°15'7 6.7
2016-Jun-24 00:33N 39°15' W 075°19'9 8.7
2016-Jun-23 23:33N 39°22' W 075°27'9 9.1
2016-Jun-23 22:34N 39°29' W 075°34'6 6.4
2016-Jun-23 21:33N 39°35' W 075°35'0 0.0
2016-Jun-23 20:28N 39°35' W 075°35'0 0.0
2016-Jun-23 19:31N 39°35' W 075°35'0 0.0
2016-Jun-23 18:31N 39°35' W 075°35'0 0.0
2016-Jun-23 17:31N 39°35' W 075°35'0 0.0
2016-Jun-23 16:31N 39°35' W 075°35'0 0.0
2016-Jun-23 15:31N 39°35' W 075°35'0 0.0
2016-Jun-23 14:31N 39°35' W 075°35'0 0.0
2016-Jun-23 13:31N 39°35' W 075°35'0 0.0
2016-Jun-23 12:31N 39°35' W 075°35'0 0.0
2016-Jun-23 11:31N 39°35' W 075°35'0 0.0
2016-Jun-23 10:31N 39°35' W 075°35'0 0.0
2016-Jun-23 09:32N 39°35' W 075°35'0 0.0
2016-Jun-23 08:31N 39°35' W 075°35'0 0.0
2016-Jun-23 07:32N 39°35' W 075°35'0 0.0
2016-Jun-23 05:33N 39°35' W 075°35'0 0.0
2016-Jun-23 04:33N 39°35' W 075°35'0 0.0
2016-Jun-23 03:33N 39°35' W 075°35'0 0.0
2016-Jun-23 02:33N 39°35' W 075°35'0 0.0
2016-Jun-23 01:33N 39°35' W 075°35'0 0.0
2016-Jun-23 00:33N 39°35' W 075°35'0 0.0
2016-Jun-22 23:33N 39°35' W 075°35'0 0.0
2016-Jun-22 22:33N 39°35' W 075°35'0 0.0
2016-Jun-22 21:33N 39°35' W 075°35'0 0.0
2016-Jun-22 20:33N 39°35' W 075°35'1 1.5
2016-Jun-22 19:33N 39°34' W 075°34'6 5.5
2016-Jun-22 18:33N 39°29' W 075°34'1 0.7
2016-Jun-22 17:33N 39°29' W 075°33'8 7.9
2016-Jun-22 16:33N 39°23' W 075°28'9 9.4
2016-Jun-22 15:33N 39°15' W 075°20'  

Dump ship's entire track history